Time;durP1;ratioP1;P1;durP2;ratioP2;P2;SDS_P1;SDS_P2;PMS_P1;PMS_P2;Temp;Humidity;BMP_temperature;BMP_pressure;BME280_temperature;BME280_humidity;BME280_pressure;Samples;Min_cycle;Max_cycle;Signal;HPM_P1;HPM_P2
2021/05/25 00:01:07;;;;;;;0.10;0.10;;;;;;;;;;5041712;28;20230;-65
2021/05/25 00:03:34;;;;;;;0.10;0.10;;;;;;;;;;5060696;28;20187;-64
2021/05/25 00:06:01;;;;;;;0.00;0.00;;;;;;;;;;5055385;28;20820;-63
2021/05/25 00:08:27;;;;;;;2.73;1.40;;;;;;;;;;5059755;28;20175;-64
2021/05/25 00:10:54;;;;;;;0.00;0.00;;;;;;;;;;5060540;28;21113;-63
2021/05/25 00:13:21;;;;;;;1.20;1.20;;;;;;;;;;5057768;28;20198;-63
2021/05/25 00:15:52;;;;;;;0.10;0.10;;;;;;;;;;5060218;28;20187;-62
2021/05/25 00:18:20;;;;;;;0.00;0.00;;;;;;;;;;5058752;28;20696;-63
2021/05/25 00:20:47;;;;;;;0.00;0.00;;;;;;;;;;5057225;28;20195;-63
2021/05/25 00:23:14;;;;;;;0.00;0.00;;;;;;;;;;5057578;28;20395;-63
2021/05/25 00:25:40;;;;;;;3.90;1.23;;;;;;;;;;5057498;28;20191;-63
2021/05/25 00:28:11;;;;;;;0.00;0.00;;;;;;;;;;5055197;28;20217;-63
2021/05/25 00:30:38;;;;;;;0.33;0.33;;;;;;;;;;5055652;28;20194;-63
2021/05/25 00:33:05;;;;;;;5.67;0.77;;;;;;;;;;5038269;28;20221;-63
2021/05/25 00:35:39;;;;;;;2.83;0.77;;;;;;;;;;5057786;28;20190;-63
2021/05/25 00:38:06;;;;;;;0.27;0.27;;;;;;;;;;5058474;28;20671;-63
2021/05/25 00:40:33;;;;;;;0.10;0.10;;;;;;;;;;5060064;28;20560;-63
2021/05/25 00:42:59;;;;;;;1.17;1.07;;;;;;;;;;5058680;28;20224;-63
2021/05/25 00:45:26;;;;;;;1.53;0.67;;;;;;;;;;5057910;28;20186;-63
2021/05/25 00:47:52;;;;;;;0.00;0.00;;;;;;;;;;5057236;28;20212;-63
2021/05/25 00:50:22;;;;;;;0.50;0.50;;;;;;;;;;5058576;28;20183;-63
2021/05/25 00:52:52;;;;;;;4.43;0.57;;;;;;;;;;5056288;28;20198;-63
2021/05/25 00:55:24;;;;;;;0.07;0.07;;;;;;;;;;5058230;28;20191;-63
2021/05/25 00:57:51;;;;;;;1.50;0.53;;;;;;;;;;5057516;28;20678;-63
2021/05/25 01:00:19;;;;;;;0.00;0.00;;;;;;;;;;5057473;28;20264;-63
2021/05/25 01:02:45;;;;;;;0.60;0.20;;;;;;;;;;5056986;28;20620;-64
2021/05/25 01:05:14;;;;;;;0.33;0.33;;;;;;;;;;5058518;28;20192;-64
2021/05/25 01:07:41;;;;;;;8.23;1.03;;;;;;;;;;5042460;28;20236;-64
2021/05/25 01:10:09;;;;;;;0.27;0.27;;;;;;;;;;5062277;28;20759;-63
2021/05/25 01:12:46;;;;;;;1.13;0.93;;;;;;;;;;5059675;28;20311;-64
2021/05/25 01:15:13;;;;;;;0.00;0.00;;;;;;;;;;5060752;28;20197;-64
2021/05/25 01:17:39;;;;;;;0.87;0.87;;;;;;;;;;5063250;28;20723;-64
2021/05/25 01:20:07;;;;;;;2.60;2.40;;;;;;;;;;5060599;28;20178;-64
2021/05/25 01:22:33;;;;;;;0.00;0.00;;;;;;;;;;5058473;28;20210;-64
2021/05/25 01:25:00;;;;;;;3.63;3.40;;;;;;;;;;5060887;28;20284;-64
2021/05/25 01:27:27;;;;;;;2.43;1.17;;;;;;;;;;5057130;28;20229;-64
2021/05/25 01:29:53;;;;;;;0.47;0.10;;;;;;;;;;5058757;28;20194;-64
2021/05/25 01:32:21;;;;;;;0.87;0.50;;;;;;;;;;5059674;28;20245;-63
2021/05/25 01:34:49;;;;;;;5.30;0.50;;;;;;;;;;5058100;28;21658;-64
2021/05/25 01:37:15;;;;;;;0.00;0.00;;;;;;;;;;5059112;28;20289;-64
2021/05/25 01:39:43;;;;;;;0.83;0.67;;;;;;;;;;5059290;28;20195;-64
2021/05/25 01:42:10;;;;;;;1.70;0.70;;;;;;;;;;5058697;28;20298;-64
2021/05/25 01:44:37;;;;;;;9.63;2.33;;;;;;;;;;5057629;28;20301;-64
2021/05/25 01:47:04;;;;;;;2.03;0.97;;;;;;;;;;5059259;28;20189;-64
2021/05/25 01:49:30;;;;;;;0.20;0.20;;;;;;;;;;5056991;28;20186;-64
2021/05/25 01:51:57;;;;;;;3.70;0.40;;;;;;;;;;5059539;28;20198;-64
2021/05/25 01:54:23;;;;;;;0.23;0.23;;;;;;;;;;5059633;28;20939;-64
2021/05/25 01:56:50;;;;;;;0.70;0.60;;;;;;;;;;5058101;28;20233;-64
2021/05/25 01:59:17;;;;;;;3.40;3.03;;;;;;;;;;5059960;28;20190;-64
2021/05/25 02:01:45;;;;;;;22.80;1.60;;;;;;;;;;5057735;28;20233;-64
2021/05/25 02:04:12;;;;;;;0.50;0.30;;;;;;;;;;5062775;28;20186;-64
2021/05/25 02:06:40;;;;;;;8.73;0.77;;;;;;;;;;5060132;28;20902;-64
2021/05/25 02:09:06;;;;;;;0.00;0.00;;;;;;;;;;5055702;28;20231;-64
2021/05/25 02:11:33;;;;;;;0.10;0.10;;;;;;;;;;5059492;28;20222;-64
2021/05/25 02:14:01;;;;;;;0.20;0.20;;;;;;;;;;5058988;28;20272;-64
2021/05/25 02:16:27;;;;;;;0.10;0.10;;;;;;;;;;5057902;28;20273;-64
2021/05/25 02:18:54;;;;;;;2.07;0.53;;;;;;;;;;5059932;28;20244;-64
2021/05/25 02:21:21;;;;;;;1.30;1.17;;;;;;;;;;5061005;28;20217;-64
2021/05/25 02:23:49;;;;;;;0.00;0.00;;;;;;;;;;5057816;28;20604;-63
2021/05/25 02:26:15;;;;;;;0.60;0.60;;;;;;;;;;5060514;28;20190;-63
2021/05/25 02:28:42;;;;;;;0.00;0.00;;;;;;;;;;5059530;28;20186;-63
2021/05/25 02:31:09;;;;;;;0.00;0.00;;;;;;;;;;5058887;28;20187;-63
2021/05/25 02:33:36;;;;;;;0.57;0.57;;;;;;;;;;5061035;28;20185;-64
2021/05/25 02:36:03;;;;;;;0.00;0.00;;;;;;;;;;5057984;28;20187;-63
2021/05/25 02:38:31;;;;;;;0.00;0.00;;;;;;;;;;5062197;28;20533;-63
2021/05/25 02:40:58;;;;;;;0.23;0.23;;;;;;;;;;5058703;28;20280;-63
2021/05/25 02:43:26;;;;;;;0.00;0.00;;;;;;;;;;5059878;28;20220;-63
2021/05/25 02:45:52;;;;;;;0.27;0.27;;;;;;;;;;5061320;28;20274;-64
2021/05/25 02:48:19;;;;;;;3.03;0.97;;;;;;;;;;5058604;28;20182;-64
2021/05/25 02:50:47;;;;;;;1.17;0.87;;;;;;;;;;5059495;28;20230;-64
2021/05/25 02:53:13;;;;;;;1.20;1.10;;;;;;;;;;5054748;28;20257;-64
2021/05/25 02:55:41;;;;;;;0.53;0.40;;;;;;;;;;5059913;28;20280;-64
2021/05/25 02:58:08;;;;;;;0.07;0.07;;;;;;;;;;5046825;28;20186;-64
2021/05/25 03:00:36;;;;;;;8.10;0.97;;;;;;;;;;5060647;28;20227;-64
2021/05/25 03:03:03;;;;;;;0.00;0.00;;;;;;;;;;5063646;28;20185;-64
2021/05/25 03:05:30;;;;;;;0.00;0.00;;;;;;;;;;5058698;28;20171;-63
2021/05/25 03:07:58;;;;;;;1.23;0.87;;;;;;;;;;5059123;28;20507;-64
2021/05/25 03:10:26;;;;;;;0.40;0.40;;;;;;;;;;5055031;28;20240;-63
2021/05/25 03:12:53;;;;;;;0.50;0.33;;;;;;;;;;5061208;28;20818;-64
2021/05/25 03:15:23;;;;;;;0.77;0.77;;;;;;;;;;5058271;28;20182;-64
2021/05/25 03:17:50;;;;;;;0.00;0.00;;;;;;;;;;5052958;28;20190;-63
2021/05/25 03:20:17;;;;;;;0.00;0.00;;;;;;;;;;5048988;28;20210;-64
2021/05/25 03:22:44;;;;;;;0.00;0.00;;;;;;;;;;5053411;28;20200;-64
2021/05/25 03:25:11;;;;;;;0.23;0.23;;;;;;;;;;5050800;28;20325;-64
2021/05/25 03:27:38;;;;;;;0.00;0.00;;;;;;;;;;5053918;28;20263;-64
2021/05/25 03:30:07;;;;;;;0.00;0.00;;;;;;;;;;5052582;28;20241;-64
2021/05/25 03:32:34;;;;;;;0.00;0.00;;;;;;;;;;5052429;28;20969;-64
2021/05/25 03:35:00;;;;;;;0.00;0.00;;;;;;;;;;5052618;28;20200;-64
2021/05/25 03:37:27;;;;;;;3.17;1.07;;;;;;;;;;5052965;28;20195;-64
2021/05/25 03:39:53;;;;;;;2.40;2.00;;;;;;;;;;5050634;28;20918;-64
2021/05/25 03:42:20;;;;;;;0.27;0.27;;;;;;;;;;5054742;28;20217;-64
2021/05/25 03:44:47;;;;;;;0.10;0.10;;;;;;;;;;5056466;28;20203;-64
2021/05/25 03:47:13;;;;;;;0.00;0.00;;;;;;;;;;5072966;28;20182;-64
2021/05/25 03:49:40;;;;;;;1.93;0.10;;;;;;;;;;5050403;28;20190;-64
2021/05/25 03:52:06;;;;;;;3.53;2.67;;;;;;;;;;5052945;28;20273;-64
2021/05/25 03:54:40;;;;;;;0.00;0.00;;;;;;;;;;5051099;28;20566;-64
2021/05/25 03:57:09;;;;;;;0.00;0.00;;;;;;;;;;5051592;28;20243;-64
2021/05/25 03:59:35;;;;;;;0.17;0.17;;;;;;;;;;5050776;28;20189;-63
2021/05/25 04:02:02;;;;;;;0.00;0.00;;;;;;;;;;5051183;28;20253;-64
2021/05/25 04:04:29;;;;;;;0.20;0.17;;;;;;;;;;5056533;28;20301;-64
2021/05/25 04:06:55;;;;;;;0.00;0.00;;;;;;;;;;5057909;28;20197;-64
2021/05/25 04:09:22;;;;;;;0.00;0.00;;;;;;;;;;5063971;28;20310;-64
2021/05/25 04:11:49;;;;;;;14.43;1.90;;;;;;;;;;5058252;28;20192;-64
2021/05/25 04:14:15;;;;;;;0.00;0.00;;;;;;;;;;5054783;28;20187;-64
2021/05/25 04:16:42;;;;;;;0.13;0.13;;;;;;;;;;5054044;28;20862;-63
2021/05/25 04:19:10;;;;;;;0.00;0.00;;;;;;;;;;5056136;28;20191;-64
2021/05/25 04:21:36;;;;;;;0.20;0.20;;;;;;;;;;5057629;28;20211;-64
2021/05/25 04:24:03;;;;;;;0.00;0.00;;;;;;;;;;5059793;28;20199;-64
2021/05/25 04:26:30;;;;;;;0.60;0.43;;;;;;;;;;5051479;28;20227;-64
2021/05/25 04:28:56;;;;;;;1.10;1.10;;;;;;;;;;5054269;28;20178;-64
2021/05/25 04:31:23;;;;;;;0.00;0.00;;;;;;;;;;5056151;28;20810;-64
2021/05/25 04:33:49;;;;;;;0.00;0.00;;;;;;;;;;5055972;28;20198;-64
2021/05/25 04:36:19;;;;;;;0.30;0.30;;;;;;;;;;5050165;28;20197;-64
2021/05/25 04:38:46;;;;;;;0.27;0.27;;;;;;;;;;5053254;28;20206;-64
2021/05/25 04:41:13;;;;;;;1.03;0.93;;;;;;;;;;5059922;28;20272;-64
2021/05/25 04:43:39;;;;;;;1.13;0.40;;;;;;;;;;5057589;28;20183;-64
2021/05/25 04:46:06;;;;;;;0.00;0.00;;;;;;;;;;5061250;28;20185;-65
2021/05/25 04:48:32;;;;;;;0.00;0.00;;;;;;;;;;5055403;28;20194;-64
2021/05/25 04:50:59;;;;;;;10.83;4.13;;;;;;;;;;5061744;28;20198;-64
2021/05/25 04:53:25;;;;;;;0.17;0.17;;;;;;;;;;5063187;28;20190;-64
2021/05/25 04:55:52;;;;;;;0.17;0.17;;;;;;;;;;5063011;28;20668;-63
2021/05/25 04:58:18;;;;;;;0.00;0.00;;;;;;;;;;5057244;28;20197;-63
2021/05/25 05:00:45;;;;;;;10.60;3.50;;;;;;;;;;5057638;28;20307;-64
2021/05/25 05:03:12;;;;;;;0.00;0.00;;;;;;;;;;5062493;28;20195;-63
2021/05/25 05:05:39;;;;;;;0.00;0.00;;;;;;;;;;5063775;28;20183;-63
2021/05/25 05:08:09;;;;;;;0.00;0.00;;;;;;;;;;5062801;28;20186;-64
2021/05/25 05:10:35;;;;;;;4.90;0.73;;;;;;;;;;5061385;28;20186;-64
2021/05/25 05:13:09;;;;;;;0.00;0.00;;;;;;;;;;5061982;28;20213;-64
2021/05/25 05:15:36;;;;;;;0.03;0.03;;;;;;;;;;5061089;28;20182;-64
2021/05/25 05:18:03;;;;;;;0.07;0.07;;;;;;;;;;5055930;28;20210;-65
2021/05/25 05:20:29;;;;;;;0.10;0.10;;;;;;;;;;5057216;28;20179;-64
2021/05/25 05:22:56;;;;;;;0.00;0.00;;;;;;;;;;5053975;28;20656;-64
2021/05/25 05:25:23;;;;;;;0.00;0.00;;;;;;;;;;5053753;28;20171;-64
2021/05/25 05:27:49;;;;;;;4.40;1.33;;;;;;;;;;5050022;28;20297;-64
2021/05/25 05:30:16;;;;;;;0.00;0.00;;;;;;;;;;5056396;28;20325;-64
2021/05/25 05:32:42;;;;;;;0.07;0.07;;;;;;;;;;5055795;28;20191;-64
2021/05/25 05:35:09;;;;;;;0.10;0.10;;;;;;;;;;5058612;28;21031;-64
2021/05/25 05:37:36;;;;;;;17.33;1.40;;;;;;;;;;5058932;28;20208;-64
2021/05/25 05:40:03;;;;;;;0.00;0.00;;;;;;;;;;5059094;28;20277;-63
2021/05/25 05:42:30;;;;;;;0.00;0.00;;;;;;;;;;5059713;28;20290;-63
2021/05/25 05:44:57;;;;;;;1.80;0.70;;;;;;;;;;5059621;28;20187;-64
2021/05/25 05:47:23;;;;;;;0.37;0.37;;;;;;;;;;5053468;28;20211;-64
2021/05/25 05:49:50;;;;;;;0.00;0.00;;;;;;;;;;5053605;28;20176;-64
2021/05/25 05:52:16;;;;;;;0.00;0.00;;;;;;;;;;5055197;28;20216;-64
2021/05/25 05:54:43;;;;;;;0.07;0.07;;;;;;;;;;5057828;28;20178;-64
2021/05/25 05:57:09;;;;;;;0.00;0.00;;;;;;;;;;5061214;28;20696;-64
2021/05/25 05:59:37;;;;;;;0.10;0.10;;;;;;;;;;5060508;28;20198;-65
2021/05/25 06:02:03;;;;;;;0.00;0.00;;;;;;;;;;5057225;28;20227;-64
2021/05/25 06:04:30;;;;;;;0.00;0.00;;;;;;;;;;5054753;28;20246;-64
2021/05/25 06:06:56;;;;;;;0.53;0.47;;;;;;;;;;5052871;28;20215;-64
2021/05/25 06:09:23;;;;;;;0.00;0.00;;;;;;;;;;5057483;28;20178;-64
2021/05/25 06:11:53;;;;;;;0.00;0.00;;;;;;;;;;5052873;28;20194;-64
2021/05/25 06:14:20;;;;;;;0.30;0.30;;;;;;;;;;5054096;28;20586;-65
2021/05/25 06:16:46;;;;;;;0.00;0.00;;;;;;;;;;5054468;28;20198;-64
2021/05/25 06:19:13;;;;;;;0.00;0.00;;;;;;;;;;5056325;28;20205;-64
2021/05/25 06:21:39;;;;;;;0.10;0.10;;;;;;;;;;5058552;28;20205;-64
2021/05/25 06:24:06;;;;;;;0.10;0.10;;;;;;;;;;5060670;28;20821;-64
2021/05/25 06:26:33;;;;;;;0.00;0.00;;;;;;;;;;5055819;28;20197;-64
2021/05/25 06:28:59;;;;;;;14.73;1.00;;;;;;;;;;5058920;28;20230;-64
2021/05/25 06:31:26;;;;;;;0.20;0.20;;;;;;;;;;5056350;28;20187;-64
2021/05/25 06:33:52;;;;;;;0.20;0.20;;;;;;;;;;5060115;28;20190;-64
2021/05/25 06:36:19;;;;;;;0.00;0.00;;;;;;;;;;5057960;28;20194;-64
2021/05/25 06:38:45;;;;;;;0.10;0.10;;;;;;;;;;5060835;28;20190;-64
2021/05/25 06:41:12;;;;;;;0.47;0.47;;;;;;;;;;5056307;28;20230;-63
2021/05/25 06:43:39;;;;;;;0.00;0.00;;;;;;;;;;5059916;28;20182;-64
2021/05/25 06:46:07;;;;;;;0.00;0.00;;;;;;;;;;5060117;28;21068;-63
2021/05/25 06:48:34;;;;;;;0.00;0.00;;;;;;;;;;5062895;28;20190;-64
2021/05/25 06:51:06;;;;;;;0.23;0.10;;;;;;;;;;5058457;28;20195;-64
2021/05/25 06:53:32;;;;;;;0.00;0.00;;;;;;;;;;5059618;28;20795;-64
2021/05/25 06:55:59;;;;;;;0.00;0.00;;;;;;;;;;5057329;28;20186;-64
2021/05/25 06:58:25;;;;;;;0.00;0.00;;;;;;;;;;5056955;28;20533;-63
2021/05/25 07:00:52;;;;;;;0.97;0.50;;;;;;;;;;5055276;28;20237;-63
2021/05/25 07:03:19;;;;;;;0.93;0.93;;;;;;;;;;5052918;28;21079;-64
2021/05/25 07:05:45;;;;;;;0.47;0.47;;;;;;;;;;5053377;28;20193;-63
2021/05/25 07:08:12;;;;;;;0.10;0.10;;;;;;;;;;5063458;28;20187;-64
2021/05/25 07:10:39;;;;;;;0.67;0.57;;;;;;;;;;5052581;28;20256;-64
2021/05/25 07:13:10;;;;;;;3.13;1.57;;;;;;;;;;5057484;28;20194;-64
2021/05/25 07:15:37;;;;;;;1.07;0.63;;;;;;;;;;5053949;28;20236;-64
2021/05/25 07:18:04;;;;;;;0.40;0.40;;;;;;;;;;5055785;28;20220;-64
2021/05/25 07:20:30;;;;;;;0.00;0.00;;;;;;;;;;5053839;28;20179;-64
2021/05/25 07:22:57;;;;;;;1.40;0.40;;;;;;;;;;5055340;28;20197;-64
2021/05/25 07:25:28;;;;;;;0.53;0.53;;;;;;;;;;5056243;28;20167;-63
2021/05/25 07:27:55;;;;;;;0.00;0.00;;;;;;;;;;5054765;28;20239;-63
2021/05/25 07:30:22;;;;;;;0.23;0.23;;;;;;;;;;5051915;28;20213;-63
2021/05/25 07:32:49;;;;;;;2.50;1.37;;;;;;;;;;5052895;28;20197;-64
2021/05/25 07:35:16;;;;;;;0.43;0.40;;;;;;;;;;5052262;28;20192;-64
2021/05/25 07:37:43;;;;;;;1.90;0.47;;;;;;;;;;5056356;28;20257;-64
2021/05/25 07:40:10;;;;;;;0.10;0.10;;;;;;;;;;5054692;28;20197;-64
2021/05/25 07:42:37;;;;;;;0.27;0.23;;;;;;;;;;5053194;28;20203;-64
2021/05/25 07:45:04;;;;;;;1.20;1.17;;;;;;;;;;5051252;28;20190;-64
2021/05/25 07:47:30;;;;;;;1.70;0.73;;;;;;;;;;5053591;28;20256;-64
2021/05/25 07:49:57;;;;;;;2.50;0.63;;;;;;;;;;5053645;28;20193;-64
2021/05/25 07:52:24;;;;;;;1.37;0.43;;;;;;;;;;5053374;28;20182;-64
2021/05/25 07:54:50;;;;;;;0.30;0.20;;;;;;;;;;5051520;28;20864;-64
2021/05/25 07:57:17;;;;;;;0.53;0.53;;;;;;;;;;5051836;28;20397;-64
2021/05/25 07:59:43;;;;;;;0.00;0.00;;;;;;;;;;5053555;28;20259;-64
2021/05/25 08:02:10;;;;;;;4.67;0.67;;;;;;;;;;5050954;28;20227;-64
2021/05/25 08:04:36;;;;;;;0.00;0.00;;;;;;;;;;5052957;28;20274;-64
2021/05/25 08:07:03;;;;;;;0.47;0.47;;;;;;;;;;5053457;28;20216;-64
2021/05/25 08:09:29;;;;;;;0.00;0.00;;;;;;;;;;5052085;28;20205;-64
2021/05/25 08:11:58;;;;;;;0.00;0.00;;;;;;;;;;5056099;28;20196;-64
2021/05/25 08:14:25;;;;;;;0.00;0.00;;;;;;;;;;5053645;28;20190;-64
2021/05/25 08:16:52;;;;;;;0.00;0.00;;;;;;;;;;5054071;28;20181;-63
2021/05/25 08:21:50;;;;;;;0.00;0.00;;;;;;;;;;5058765;28;20245;-64
2021/05/25 08:24:17;;;;;;;1.23;1.13;;;;;;;;;;5068975;28;20190;-64
2021/05/25 08:26:44;;;;;;;0.77;0.77;;;;;;;;;;5055548;28;20175;-64
2021/05/25 08:29:10;;;;;;;0.00;0.00;;;;;;;;;;5055049;28;20208;-64
2021/05/25 08:31:37;;;;;;;0.00;0.00;;;;;;;;;;5060351;28;20197;-64
2021/05/25 08:34:03;;;;;;;0.60;0.60;;;;;;;;;;5056391;28;20179;-64
2021/05/25 08:36:31;;;;;;;0.20;0.20;;;;;;;;;;5055154;28;20210;-64
2021/05/25 08:38:57;;;;;;;0.07;0.07;;;;;;;;;;5055104;28;20189;-64
2021/05/25 08:41:24;;;;;;;0.60;0.40;;;;;;;;;;5060195;28;20217;-63
2021/05/25 08:43:51;;;;;;;0.10;0.10;;;;;;;;;;5042830;28;20559;-63
2021/05/25 08:46:17;;;;;;;1.23;0.40;;;;;;;;;;5061962;28;20563;-64
2021/05/25 08:48:44;;;;;;;0.00;0.00;;;;;;;;;;5061721;28;20310;-64
2021/05/25 08:51:10;;;;;;;0.43;0.20;;;;;;;;;;5061156;28;20655;-64
2021/05/25 08:53:37;;;;;;;3.70;0.50;;;;;;;;;;5060582;28;20279;-64
2021/05/25 08:56:06;;;;;;;0.07;0.07;;;;;;;;;;5061315;28;21024;-64
2021/05/25 08:58:32;;;;;;;0.17;0.17;;;;;;;;;;5059511;28;20182;-64
2021/05/25 09:00:59;;;;;;;0.20;0.20;;;;;;;;;;5058344;28;20314;-64
2021/05/25 09:03:26;;;;;;;0.00;0.00;;;;;;;;;;5055983;28;22242;-64
2021/05/25 09:05:59;;;;;;;0.00;0.00;;;;;;;;;;5052875;28;20261;-63
2021/05/25 09:08:26;;;;;;;0.00;0.00;;;;;;;;;;5053846;28;20915;-64
2021/05/25 09:10:58;;;;;;;0.00;0.00;;;;;;;;;;5057833;28;21632;-63
2021/05/25 09:13:25;;;;;;;0.30;0.30;;;;;;;;;;5062581;28;20194;-63
2021/05/25 09:15:58;;;;;;;1.50;0.70;;;;;;;;;;5060241;28;20197;-64
2021/05/25 09:18:29;;;;;;;9.93;6.17;;;;;;;;;;5062100;28;20255;-64
2021/05/25 09:20:56;;;;;;;4.87;3.13;;;;;;;;;;5057455;28;20988;-63
2021/05/25 09:23:40;;;;;;;0.00;0.00;;;;;;;;;;5057586;28;20178;-63
2021/05/25 09:26:12;;;;;;;2.10;2.00;;;;;;;;;;5060985;28;20228;-63
2021/05/25 09:28:53;;;;;;;0.03;0.00;;;;;;;;;;5058706;28;20270;-64
2021/05/25 09:31:27;;;;;;;1.77;0.63;;;;;;;;;;5061647;28;20187;-65
2021/05/25 09:34:09;;;;;;;0.30;0.30;;;;;;;;;;5060592;28;20219;-64
2021/05/25 09:36:54;;;;;;;0.20;0.20;;;;;;;;;;5060092;28;20183;-63
2021/05/25 09:39:21;;;;;;;0.63;0.47;;;;;;;;;;5059075;28;20246;-64
2021/05/25 09:41:57;;;;;;;1.23;1.13;;;;;;;;;;5060992;28;20216;-63
2021/05/25 09:44:24;;;;;;;2.30;2.20;;;;;;;;;;5062075;28;20192;-63
2021/05/25 09:46:51;;;;;;;1.20;0.47;;;;;;;;;;5061739;28;20275;-63
2021/05/25 09:49:17;;;;;;;0.10;0.10;;;;;;;;;;5061936;28;20186;-63
2021/05/25 09:51:44;;;;;;;0.00;0.00;;;;;;;;;;5061749;28;20196;-63
2021/05/25 09:54:20;;;;;;;0.47;0.47;;;;;;;;;;5061313;28;20335;-64
2021/05/25 09:56:56;;;;;;;0.27;0.20;;;;;;;;;;5059702;28;20193;-64
2021/05/25 09:59:29;;;;;;;0.43;0.43;;;;;;;;;;5060259;28;20609;-63
2021/05/25 10:01:56;;;;;;;0.10;0.10;;;;;;;;;;5056628;28;21019;-63
2021/05/25 10:04:23;;;;;;;1.23;0.73;;;;;;;;;;5058665;28;20808;-64
2021/05/25 10:06:51;;;;;;;3.60;3.30;;;;;;;;;;5059737;28;20207;-64
2021/05/25 10:09:20;;;;;;;0.40;0.40;;;;;;;;;;5062936;28;20201;-63
2021/05/25 10:11:48;;;;;;;0.10;0.10;;;;;;;;;;5056696;28;20190;-64
2021/05/25 10:14:17;;;;;;;0.60;0.60;;;;;;;;;;5063226;28;21042;-63
2021/05/25 10:16:46;;;;;;;0.10;0.10;;;;;;;;;;5060248;28;20198;-63
2021/05/25 12:55:41;;;;;;;2.70;0.87;;;;;;;;;;5049778;27;20585;-63
2021/05/25 12:58:08;;;;;;;0.37;0.37;;;;;;;;;;5042555;28;20194;-62
2021/05/25 13:00:40;;;;;;;3.40;0.40;;;;;;;;;;5043870;28;20197;-62
2021/05/25 13:03:23;;;;;;;0.00;0.00;;;;;;;;;;5044625;28;20186;-63
2021/05/25 13:05:51;;;;;;;0.10;0.10;;;;;;;;;;5039774;28;20175;-63
2021/05/25 13:08:24;;;;;;;1.40;0.83;;;;;;;;;;5044718;28;20183;-63
2021/05/25 13:10:53;;;;;;;3.53;3.20;;;;;;;;;;5040348;28;20197;-63
2021/05/25 13:13:20;;;;;;;2.00;1.07;;;;;;;;;;5043614;28;20289;-63
2021/05/25 13:15:51;;;;;;;0.00;0.00;;;;;;;;;;5044282;28;20179;-63
2021/05/25 13:18:22;;;;;;;3.33;0.80;;;;;;;;;;5040269;28;20179;-63
2021/05/25 13:21:01;;;;;;;0.00;0.00;;;;;;;;;;5043968;28;20210;-63
2021/05/25 13:23:29;;;;;;;0.40;0.40;;;;;;;;;;5035100;28;20928;-63
2021/05/25 13:26:06;;;;;;;1.60;0.60;;;;;;;;;;5043363;28;20872;-63
2021/05/25 13:28:48;;;;;;;1.47;0.73;;;;;;;;;;5044004;28;20187;-63
2021/05/25 13:31:22;;;;;;;0.87;0.10;;;;;;;;;;5037527;28;20591;-63
2021/05/25 13:33:49;;;;;;;3.33;0.43;;;;;;;;;;5042073;28;20211;-62
2021/05/25 13:36:16;;;;;;;0.00;0.00;;;;;;;;;;5044574;28;20231;-63
2021/05/25 13:38:44;;;;;;;1.07;0.73;;;;;;;;;;5035060;28;20842;-63
2021/05/25 13:41:10;;;;;;;0.00;0.00;;;;;;;;;;5037509;28;20665;-63
2021/05/25 13:43:37;;;;;;;0.10;0.10;;;;;;;;;;5049301;28;20190;-63
2021/05/25 13:46:04;;;;;;;0.67;0.47;;;;;;;;;;5047577;28;20183;-63
2021/05/25 13:48:30;;;;;;;2.63;0.80;;;;;;;;;;5041734;28;20635;-62
2021/05/25 13:50:58;;;;;;;0.00;0.00;;;;;;;;;;5036382;28;20187;-63
2021/05/25 13:53:24;;;;;;;1.40;0.40;;;;;;;;;;5043178;28;20848;-63
2021/05/25 13:55:51;;;;;;;0.60;0.53;;;;;;;;;;5047350;28;20247;-63
2021/05/25 13:58:20;;;;;;;1.37;0.57;;;;;;;;;;5038642;28;20183;-63
2021/05/25 14:03:16;;;;;;;2.00;1.17;;;;;;;;;;5041952;28;20179;-62
2021/05/25 14:05:43;;;;;;;0.93;0.40;;;;;;;;;;5039714;28;20183;-63
2021/05/25 14:08:09;;;;;;;0.83;0.43;;;;;;;;;;5030922;28;20180;-63
2021/05/25 14:10:36;;;;;;;7.33;1.40;;;;;;;;;;5025816;28;20183;-62
2021/05/25 14:13:04;;;;;;;0.00;0.00;;;;;;;;;;5031298;28;20184;-63
2021/05/25 14:15:33;;;;;;;2.03;0.90;;;;;;;;;;5027364;28;20199;-63
2021/05/25 14:18:00;;;;;;;1.50;0.73;;;;;;;;;;5024121;28;20257;-63
2021/05/25 14:20:26;;;;;;;0.30;0.30;;;;;;;;;;5024405;28;20179;-63
2021/05/25 14:22:54;;;;;;;7.40;0.83;;;;;;;;;;5033724;28;20191;-63
2021/05/25 14:25:21;;;;;;;3.73;0.50;;;;;;;;;;5026742;28;20585;-63
2021/05/25 14:27:47;;;;;;;0.40;0.40;;;;;;;;;;5031882;28;20193;-63
2021/05/25 14:30:14;;;;;;;0.20;0.20;;;;;;;;;;5027842;28;20220;-63
2021/05/25 14:32:41;;;;;;;11.80;0.33;;;;;;;;;;5031339;28;20657;-63
2021/05/25 14:35:08;;;;;;;0.93;0.23;;;;;;;;;;5032014;28;20203;-63
2021/05/25 14:37:34;;;;;;;0.00;0.00;;;;;;;;;;5030676;28;20184;-63
2021/05/25 14:40:01;;;;;;;1.33;0.87;;;;;;;;;;5028910;28;20838;-63
2021/05/25 14:42:28;;;;;;;2.53;0.87;;;;;;;;;;5028111;28;20188;-63
2021/05/25 14:44:54;;;;;;;3.43;1.23;;;;;;;;;;5024787;28;20306;-63
2021/05/25 14:47:21;;;;;;;2.27;1.57;;;;;;;;;;5029685;28;20249;-63
2021/05/25 14:49:48;;;;;;;0.30;0.23;;;;;;;;;;5029166;28;20190;-63
2021/05/25 14:52:15;;;;;;;4.07;1.80;;;;;;;;;;5026927;28;20196;-63
2021/05/25 14:54:43;;;;;;;6.93;1.37;;;;;;;;;;5030839;28;20235;-63
2021/05/25 14:57:11;;;;;;;1.50;0.77;;;;;;;;;;5032281;28;20188;-63
2021/05/25 14:59:40;;;;;;;0.27;0.27;;;;;;;;;;5030844;28;20270;-63
2021/05/25 15:02:19;;;;;;;0.20;0.20;;;;;;;;;;5027584;28;20249;-63
2021/05/25 15:05:05;;;;;;;4.53;1.20;;;;;;;;;;5025646;28;20188;-63
2021/05/25 15:07:32;;;;;;;0.00;0.00;;;;;;;;;;5028449;28;20193;-63
2021/05/25 15:10:01;;;;;;;0.20;0.20;;;;;;;;;;5024585;28;20192;-63
2021/05/25 15:12:28;;;;;;;0.50;0.30;;;;;;;;;;5022326;28;20533;-63
2021/05/25 15:14:54;;;;;;;2.77;0.97;;;;;;;;;;5028864;28;20207;-63
2021/05/25 15:17:21;;;;;;;0.37;0.37;;;;;;;;;;5022923;28;20185;-63
2021/05/25 15:19:48;;;;;;;2.63;0.37;;;;;;;;;;5027289;28;20887;-62
2021/05/25 15:22:15;;;;;;;0.23;0.23;;;;;;;;;;5022949;28;20215;-62
2021/05/25 15:24:41;;;;;;;2.10;0.40;;;;;;;;;;5033910;28;20208;-63
2021/05/25 15:27:09;;;;;;;2.57;0.70;;;;;;;;;;5030327;28;20195;-63
2021/05/25 15:29:35;;;;;;;0.40;0.20;;;;;;;;;;5025633;28;20261;-63
2021/05/25 15:32:02;;;;;;;0.73;0.20;;;;;;;;;;5025975;28;20179;-63
2021/05/25 15:34:28;;;;;;;0.17;0.17;;;;;;;;;;5034328;28;20231;-63
2021/05/25 15:36:55;;;;;;;1.93;0.67;;;;;;;;;;5024048;28;20266;-62
2021/05/25 15:39:22;;;;;;;9.67;0.60;;;;;;;;;;5023147;28;20201;-63
2021/05/25 15:41:49;;;;;;;2.93;1.53;;;;;;;;;;5023456;28;20869;-62
2021/05/25 15:44:17;;;;;;;3.50;0.93;;;;;;;;;;5027341;28;21727;-62
2021/05/25 15:46:43;;;;;;;6.23;1.70;;;;;;;;;;5031584;28;20188;-62
2021/05/25 15:49:10;;;;;;;4.43;0.57;;;;;;;;;;5030132;28;20195;-63
2021/05/25 15:51:36;;;;;;;3.73;0.80;;;;;;;;;;5028137;28;20191;-62
2021/05/25 15:54:05;;;;;;;0.13;0.13;;;;;;;;;;5028326;28;20612;-62
2021/05/25 15:56:35;;;;;;;0.93;0.80;;;;;;;;;;5026581;28;20191;-62
2021/05/25 15:59:02;;;;;;;0.83;0.30;;;;;;;;;;5024674;28;20176;-63
2021/05/25 16:01:31;;;;;;;0.77;0.77;;;;;;;;;;5030425;28;20199;-62
2021/05/25 16:03:58;;;;;;;0.20;0.20;;;;;;;;;;5026349;28;20579;-63
2021/05/25 16:06:24;;;;;;;0.00;0.00;;;;;;;;;;5024208;28;21051;-63
2021/05/25 16:08:51;;;;;;;1.90;0.63;;;;;;;;;;5028683;28;20274;-63
2021/05/25 16:11:18;;;;;;;0.47;0.23;;;;;;;;;;5028444;28;20192;-63
2021/05/25 16:13:45;;;;;;;1.73;1.63;;;;;;;;;;5031531;28;20211;-63
2021/05/25 16:16:12;;;;;;;0.50;0.50;;;;;;;;;;5028144;28;20207;-62
2021/05/25 16:18:38;;;;;;;4.40;1.53;;;;;;;;;;5023176;28;20192;-62
2021/05/25 16:21:05;;;;;;;0.27;0.10;;;;;;;;;;5026442;28;20189;-63
2021/05/25 16:23:32;;;;;;;1.80;1.00;;;;;;;;;;5018585;28;20244;-63
2021/05/25 16:25:58;;;;;;;0.10;0.10;;;;;;;;;;5022722;28;20206;-63
2021/05/25 16:28:26;;;;;;;0.93;0.73;;;;;;;;;;5029126;28;20242;-63
2021/05/25 16:30:53;;;;;;;1.03;0.60;;;;;;;;;;5026708;28;20180;-63
2021/05/25 16:33:20;;;;;;;9.53;0.63;;;;;;;;;;5029494;28;20194;-63
2021/05/25 16:35:47;;;;;;;0.07;0.07;;;;;;;;;;5027391;28;20271;-63
2021/05/25 16:38:13;;;;;;;0.97;0.53;;;;;;;;;;5024454;28;20861;-63
2021/05/25 16:40:40;;;;;;;5.50;5.23;;;;;;;;;;5027062;28;20178;-63
2021/05/25 16:43:07;;;;;;;1.00;0.40;;;;;;;;;;5025358;28;20848;-63
2021/05/25 16:45:33;;;;;;;0.27;0.27;;;;;;;;;;5029283;28;20664;-63
2021/05/25 16:48:00;;;;;;;8.70;1.43;;;;;;;;;;5021923;28;20199;-63
2021/05/25 16:50:26;;;;;;;1.23;0.57;;;;;;;;;;5024655;28;20219;-63
2021/05/25 16:52:53;;;;;;;0.50;0.30;;;;;;;;;;5027310;28;20327;-63
2021/05/25 16:55:20;;;;;;;2.33;0.63;;;;;;;;;;5025446;28;20230;-63
2021/05/25 16:57:48;;;;;;;3.17;1.20;;;;;;;;;;5028677;28;20785;-63
2021/05/25 17:05:57;;;;;;;0.20;0.20;;;;;;;;;;5030001;28;20202;-63
2021/05/25 17:19:10;;;;;;;0.20;0.20;;;;;;;;;;5022968;28;20267;-63
2021/05/25 17:21:37;;;;;;;1.30;1.13;;;;;;;;;;5017320;28;20182;-63
2021/05/25 17:24:06;;;;;;;5.47;0.87;;;;;;;;;;5027557;28;20217;-63
2021/05/25 17:26:47;;;;;;;0.70;0.20;;;;;;;;;;5028303;28;20189;-63
2021/05/25 17:29:16;;;;;;;0.90;0.40;;;;;;;;;;5029211;28;20187;-63
2021/05/25 17:31:43;;;;;;;0.10;0.10;;;;;;;;;;5018832;28;20194;-62
2021/05/25 17:34:09;;;;;;;0.53;0.50;;;;;;;;;;5023344;28;20211;-62
2021/05/25 17:36:36;;;;;;;3.60;0.10;;;;;;;;;;5013302;28;20191;-63
2021/05/25 17:39:04;;;;;;;2.93;0.20;;;;;;;;;;5013634;28;20265;-63
2021/05/25 17:41:30;;;;;;;1.30;0.20;;;;;;;;;;5015228;28;20185;-63
2021/05/25 17:43:57;;;;;;;0.00;0.00;;;;;;;;;;5019914;28;20191;-63